Time;durP1;ratioP1;P1;durP2;ratioP2;P2;SDS_P1;SDS_P2;PMS_P1;PMS_P2;Temp;Humidity;BMP_temperature;BMP_pressure;BME280_temperature;BME280_humidity;BME280_pressure;Samples;Min_cycle;Max_cycle;Signal;HPM_P1;HPM_P2
2021/04/18 00:00:53;;;;;;;9.17;3.27;;;8.70;66.90;;;;;;5034206;28;20036;-83
2021/04/18 00:03:19;;;;;;;7.27;3.37;;;8.60;66.80;;;;;;5053367;28;20025;-82
2021/04/18 00:05:45;;;;;;;5.37;2.57;;;8.60;66.90;;;;;;5021085;28;20067;-82
2021/04/18 00:08:11;;;;;;;4.83;2.97;;;8.60;67.10;;;;;;5053525;28;20037;-82
2021/04/18 00:10:41;;;;;;;7.33;2.87;;;8.50;66.80;;;;;;4994202;28;20100;-81
2021/04/18 00:13:11;;;;;;;6.20;2.73;;;8.50;67.00;;;;;;5026112;28;20067;-83
2021/04/18 00:15:40;;;;;;;5.97;2.90;;;8.40;67.10;;;;;;5053852;28;20033;-82
2021/04/18 00:18:07;;;;;;;6.67;2.90;;;8.40;67.00;;;;;;5065567;28;20048;-82
2021/04/18 00:20:32;;;;;;;5.57;2.73;;;8.30;66.90;;;;;;5050848;28;20040;-82
2021/04/18 00:22:58;;;;;;;7.77;3.30;;;8.30;67.60;;;;;;5025656;28;20399;-82
2021/04/18 00:25:24;;;;;;;8.70;2.80;;;8.30;67.60;;;;;;5040915;28;20395;-82
2021/04/18 00:27:50;;;;;;;6.60;2.80;;;8.20;67.50;;;;;;5034504;28;20025;-81
2021/04/18 00:30:18;;;;;;;6.50;2.63;;;8.20;67.80;;;;;;5052324;28;20139;-82
2021/04/18 00:32:45;;;;;;;10.53;3.80;;;8.20;67.80;;;;;;5056034;28;20025;-82
2021/04/18 00:35:12;;;;;;;6.57;3.50;;;8.30;67.70;;;;;;5059076;28;20033;-81
2021/04/18 00:37:40;;;;;;;5.27;2.50;;;8.20;67.70;;;;;;5057755;28;20061;-81
2021/04/18 00:40:11;;;;;;;8.60;2.47;;;8.20;68.30;;;;;;5038059;28;20021;-82
2021/04/18 00:42:37;;;;;;;5.63;2.30;;;8.20;67.90;;;;;;5056972;28;20028;-82
2021/04/18 00:45:05;;;;;;;6.70;2.40;;;8.10;67.90;;;;;;5037960;28;20037;-81
2021/04/18 00:47:32;;;;;;;5.90;2.80;;;8.10;68.30;;;;;;5039042;28;20029;-82
2021/04/18 00:50:00;;;;;;;6.77;2.50;;;8.00;68.30;;;;;;5038766;28;20033;-82
2021/04/18 00:52:28;;;;;;;6.43;2.97;;;8.00;68.30;;;;;;5039348;28;20044;-81
2021/04/18 00:54:54;;;;;;;8.00;2.53;;;8.00;68.40;;;;;;5021363;28;20041;-81
2021/04/18 00:57:20;;;;;;;5.53;2.30;;;8.00;68.60;;;;;;5036867;28;20025;-82
2021/04/18 00:59:45;;;;;;;5.00;2.40;;;8.00;68.30;;;;;;5054954;28;20029;-81
2021/04/18 01:02:12;;;;;;;6.93;2.30;;;7.90;68.50;;;;;;5037086;28;20037;-81
2021/04/18 01:04:37;;;;;;;6.23;2.90;;;7.90;68.70;;;;;;5038140;28;20125;-82
2021/04/18 01:07:03;;;;;;;9.10;2.80;;;7.90;68.70;;;;;;5022567;28;20053;-81
2021/04/18 01:09:30;;;;;;;6.17;2.60;;;7.90;68.80;;;;;;5002962;28;20022;-82
2021/04/18 01:11:56;;;;;;;6.93;3.10;;;7.80;68.90;;;;;;5018598;28;20029;-82
2021/04/18 01:14:22;;;;;;;7.17;2.70;;;7.90;69.30;;;;;;4999681;28;20453;-81
2021/04/18 01:16:48;;;;;;;4.97;2.83;;;7.90;69.00;;;;;;5034974;28;20038;-80
2021/04/18 01:19:14;;;;;;;6.73;2.73;;;7.90;69.00;;;;;;5032621;28;20160;-81
2021/04/18 01:21:40;;;;;;;5.93;2.70;;;7.90;69.00;;;;;;5036846;28;20052;-81
2021/04/18 01:24:06;;;;;;;5.30;2.43;;;7.90;68.90;;;;;;5035591;28;20116;-82
2021/04/18 01:26:33;;;;;;;8.57;3.10;;;7.80;68.80;;;;;;5019673;28;20037;-81
2021/04/18 01:28:59;;;;;;;5.27;2.53;;;7.80;69.20;;;;;;5016030;28;20038;-80
2021/04/18 01:31:25;;;;;;;9.00;3.47;;;7.80;69.20;;;;;;5035342;28;20064;-81
2021/04/18 01:33:51;;;;;;;9.17;3.37;;;7.70;69.30;;;;;;5053737;28;20439;-81
2021/04/18 01:36:17;;;;;;;6.17;2.63;;;7.70;69.40;;;;;;5053351;28;20029;-81
2021/04/18 01:38:43;;;;;;;6.83;3.13;;;7.70;69.70;;;;;;5020318;28;20363;-81
2021/04/18 01:41:09;;;;;;;7.20;3.93;;;7.70;69.70;;;;;;5008156;28;20501;-80
2021/04/18 01:43:38;;;;;;;8.87;3.37;;;7.70;69.70;;;;;;5000479;28;20035;-80
2021/04/18 01:46:04;;;;;;;8.27;3.27;;;7.60;69.70;;;;;;5034158;28;20041;-81
2021/04/18 01:48:29;;;;;;;8.30;3.97;;;7.60;70.00;;;;;;5008024;28;20465;-80
2021/04/18 01:50:55;;;;;;;8.83;3.33;;;7.50;70.20;;;;;;5019685;28;20426;-80
2021/04/18 01:53:21;;;;;;;6.60;2.83;;;7.50;70.40;;;;;;5054230;28;20037;-80
2021/04/18 01:55:47;;;;;;;10.47;3.37;;;7.40;70.10;;;;;;5038028;28;20041;-80
2021/04/18 01:58:12;;;;;;;7.07;3.20;;;7.40;70.50;;;;;;5036276;28;20399;-81
2021/04/18 02:00:38;;;;;;;5.13;2.77;;;7.40;70.60;;;;;;5019834;28;20068;-80
2021/04/18 02:03:04;;;;;;;9.13;3.60;;;7.40;70.50;;;;;;5036079;28;20032;-80
2021/04/18 02:05:32;;;;;;;6.13;3.17;;;7.40;70.20;;;;;;5035990;28;20041;-81
2021/04/18 02:07:58;;;;;;;7.37;3.67;;;7.30;70.90;;;;;;5035648;28;20079;-79
2021/04/18 02:10:24;;;;;;;6.47;3.07;;;7.30;70.50;;;;;;5035616;28;20032;-80
2021/04/18 02:12:51;;;;;;;8.63;3.20;;;7.30;70.70;;;;;;5036726;28;20417;-80
2021/04/18 02:15:17;;;;;;;5.43;2.77;;;7.20;70.90;;;;;;5035255;28;20041;-81
2021/04/18 02:17:43;;;;;;;7.67;3.40;;;7.20;71.00;;;;;;5061757;28;20037;-80
2021/04/18 02:20:09;;;;;;;9.90;3.77;;;7.20;71.20;;;;;;5068129;28;20025;-81
2021/04/18 02:22:35;;;;;;;8.07;3.13;;;7.20;71.30;;;;;;5032164;28;20017;-80
2021/04/18 02:25:02;;;;;;;10.80;3.07;;;7.20;71.40;;;;;;5051108;28;20037;-81
2021/04/18 02:27:28;;;;;;;8.27;3.13;;;7.20;71.30;;;;;;5037399;28;20049;-81
2021/04/18 02:29:55;;;;;;;9.90;3.03;;;7.20;71.30;;;;;;5039422;28;20022;-80
2021/04/18 02:32:21;;;;;;;5.13;2.97;;;7.20;71.50;;;;;;5054752;28;20019;-81
2021/04/18 02:34:48;;;;;;;6.07;3.30;;;7.20;71.50;;;;;;5053205;28;20033;-81
2021/04/18 02:37:14;;;;;;;7.93;3.40;;;7.20;71.60;;;;;;5054143;28;20039;-82
2021/04/18 02:39:40;;;;;;;11.37;3.87;;;7.20;71.60;;;;;;5042586;28;20048;-81
2021/04/18 02:42:06;;;;;;;8.27;3.47;;;7.20;71.60;;;;;;5019224;28;20040;-81
2021/04/18 02:44:31;;;;;;;8.70;3.30;;;7.20;71.50;;;;;;5034485;28;20329;-80
2021/04/18 02:46:57;;;;;;;8.93;3.13;;;7.20;71.50;;;;;;5018685;28;20028;-80
2021/04/18 02:49:23;;;;;;;9.30;3.70;;;7.10;71.60;;;;;;5052467;28;20115;-80
2021/04/18 02:51:49;;;;;;;10.90;4.53;;;7.10;71.90;;;;;;5018785;28;20037;-80
2021/04/18 02:54:14;;;;;;;8.63;3.27;;;7.00;71.80;;;;;;5034660;28;20124;-82
2021/04/18 02:56:40;;;;;;;8.03;3.77;;;7.00;71.80;;;;;;5018673;28;20090;-80
2021/04/18 02:59:06;;;;;;;6.63;3.27;;;7.00;72.10;;;;;;5018858;28;20490;-80
2021/04/18 03:01:31;;;;;;;8.50;4.13;;;7.00;72.20;;;;;;5051259;28;20451;-80
2021/04/18 03:03:57;;;;;;;8.10;3.50;;;7.00;72.10;;;;;;5017414;28;20053;-80
2021/04/18 03:06:23;;;;;;;8.00;3.23;;;6.90;72.10;;;;;;5032975;28;20382;-80
2021/04/18 03:08:48;;;;;;;7.50;3.60;;;6.90;72.80;;;;;;5050564;28;20029;-80
2021/04/18 03:11:14;;;;;;;8.50;3.30;;;6.90;72.40;;;;;;5013049;28;20059;-80
2021/04/18 03:13:40;;;;;;;10.17;3.90;;;7.00;72.20;;;;;;5012174;28;20063;-80
2021/04/18 03:16:06;;;;;;;7.93;3.40;;;6.90;72.20;;;;;;4996745;28;20502;-80
2021/04/18 03:18:31;;;;;;;10.47;4.60;;;6.90;72.40;;;;;;5032394;28;20029;-80
2021/04/18 03:20:57;;;;;;;10.23;4.00;;;6.90;72.40;;;;;;5026400;28;20040;-80
2021/04/18 03:23:23;;;;;;;12.00;4.63;;;6.90;72.60;;;;;;5039413;28;20025;-80
2021/04/18 03:25:49;;;;;;;13.23;4.40;;;6.80;72.80;;;;;;5037014;28;20094;-80
2021/04/18 03:28:14;;;;;;;7.20;3.93;;;6.80;72.60;;;;;;5019985;28;20487;-80
2021/04/18 03:30:41;;;;;;;7.63;4.03;;;6.80;72.90;;;;;;5053776;28;20053;-80
2021/04/18 03:33:06;;;;;;;8.60;3.80;;;6.80;72.90;;;;;;5020294;28;20036;-80
2021/04/18 03:35:32;;;;;;;6.97;4.07;;;6.80;73.10;;;;;;5036029;28;20033;-80
2021/04/18 03:37:58;;;;;;;9.17;4.40;;;6.70;73.20;;;;;;5003671;28;20493;-80
2021/04/18 03:40:23;;;;;;;12.10;4.83;;;6.70;73.10;;;;;;5035696;28;20033;-81
2021/04/18 03:42:50;;;;;;;12.20;4.60;;;6.70;73.30;;;;;;5003526;28;20106;-80
2021/04/18 03:45:17;;;;;;;9.77;4.33;;;6.70;73.40;;;;;;5036006;28;20041;-80
2021/04/18 03:47:44;;;;;;;8.63;4.57;;;6.70;73.60;;;;;;5035332;28;20594;-80
2021/04/18 03:50:10;;;;;;;9.70;5.20;;;6.70;73.50;;;;;;5019557;28;20039;-79
2021/04/18 03:52:36;;;;;;;8.50;4.90;;;6.50;73.10;;;;;;5035026;28;20045;-80
2021/04/18 03:55:03;;;;;;;9.40;4.93;;;6.40;73.50;;;;;;5019428;28;20409;-79
2021/04/18 03:57:29;;;;;;;8.70;4.53;;;6.30;74.30;;;;;;5019067;28;20041;-81
2021/04/18 03:59:54;;;;;;;13.60;4.60;;;6.20;73.90;;;;;;5036357;28;20524;-80
2021/04/18 04:02:20;;;;;;;14.10;5.37;;;6.20;74.50;;;;;;5019923;28;20102;-80
2021/04/18 04:04:45;;;;;;;13.83;5.13;;;6.10;74.50;;;;;;5053147;28;20029;-80
2021/04/18 04:07:11;;;;;;;22.93;5.07;;;6.20;75.00;;;;;;5036323;28;20041;-80
2021/04/18 04:09:38;;;;;;;9.13;4.87;;;6.30;74.90;;;;;;5053763;28;20028;-80
2021/04/18 04:12:05;;;;;;;8.83;4.17;;;6.50;74.80;;;;;;5036306;28;20124;-80
2021/04/18 04:14:30;;;;;;;8.97;4.80;;;6.60;74.50;;;;;;5031827;28;20096;-80
2021/04/18 04:16:56;;;;;;;6.67;4.17;;;6.70;74.10;;;;;;5016484;28;20037;-80
2021/04/18 04:19:22;;;;;;;8.33;4.40;;;6.70;73.80;;;;;;5016156;28;20125;-80
2021/04/18 04:21:48;;;;;;;11.77;4.63;;;6.80;73.80;;;;;;5031265;28;20585;-80
2021/04/18 04:24:13;;;;;;;13.17;5.03;;;6.80;73.60;;;;;;5032518;28;20087;-79
2021/04/18 04:26:39;;;;;;;12.40;5.40;;;6.70;73.70;;;;;;5031713;28;20124;-80
2021/04/18 04:29:05;;;;;;;12.43;5.20;;;6.50;73.60;;;;;;5031138;28;20380;-81
2021/04/18 04:31:30;;;;;;;7.83;4.87;;;6.50;74.50;;;;;;5014743;28;20387;-81
2021/04/18 04:33:56;;;;;;;9.90;4.87;;;6.50;74.50;;;;;;5032135;28;20034;-80
2021/04/18 04:36:22;;;;;;;10.53;4.33;;;6.60;74.40;;;;;;5015221;28;20034;-80
2021/04/18 04:38:48;;;;;;;10.27;5.00;;;6.70;74.10;;;;;;5031040;28;20811;-81
2021/04/18 04:41:14;;;;;;;9.83;5.07;;;6.70;74.00;;;;;;5032454;28;20030;-80
2021/04/18 04:43:40;;;;;;;11.27;5.37;;;6.70;73.80;;;;;;5032345;28;20044;-80
2021/04/18 04:46:05;;;;;;;11.20;5.00;;;6.60;74.20;;;;;;5031489;28;20037;-80
2021/04/18 04:48:31;;;;;;;11.40;5.17;;;6.60;74.20;;;;;;5015035;28;20124;-82
2021/04/18 04:50:57;;;;;;;7.97;4.67;;;6.70;74.20;;;;;;5015754;28;20145;-80
2021/04/18 04:53:22;;;;;;;10.73;5.10;;;6.80;74.20;;;;;;5031144;28;20102;-81
2021/04/18 04:55:48;;;;;;;11.87;5.37;;;6.80;73.90;;;;;;5013774;28;20041;-81
2021/04/18 04:58:15;;;;;;;11.23;6.23;;;6.80;73.80;;;;;;5015213;28;20029;-80
2021/04/18 05:00:41;;;;;;;12.40;5.77;;;6.80;74.00;;;;;;5032305;28;20455;-80
2021/04/18 05:03:06;;;;;;;12.27;5.37;;;6.80;73.90;;;;;;5030886;28;20026;-80
2021/04/18 05:05:32;;;;;;;12.23;6.77;;;6.90;73.70;;;;;;5014488;28;20139;-82
2021/04/18 05:07:59;;;;;;;14.53;6.00;;;6.90;73.50;;;;;;5032928;28;20120;-81
2021/04/18 05:10:25;;;;;;;8.93;5.40;;;6.90;73.70;;;;;;5030666;28;20029;-80
2021/04/18 05:12:50;;;;;;;12.17;5.70;;;7.00;73.60;;;;;;5032382;28;20088;-80
2021/04/18 05:15:16;;;;;;;10.30;6.37;;;7.00;73.50;;;;;;4997550;28;20116;-80
2021/04/18 05:17:42;;;;;;;11.30;5.23;;;7.10;73.30;;;;;;4994207;28;20026;-80
2021/04/18 05:20:08;;;;;;;13.73;5.77;;;7.20;73.20;;;;;;5011292;28;20064;-80
2021/04/18 05:22:34;;;;;;;13.60;5.17;;;7.50;73.00;;;;;;5011863;28;20037;-80
2021/04/18 05:25:00;;;;;;;13.40;5.70;;;8.20;71.90;;;;;;5011842;28;20038;-80
2021/04/18 05:27:26;;;;;;;10.63;5.70;;;9.00;69.30;;;;;;5012466;28;20108;-82
2021/04/18 05:29:52;;;;;;;12.00;6.87;;;9.80;67.30;;;;;;5011920;28;20034;-80
2021/04/18 05:32:18;;;;;;;13.83;7.73;;;10.50;65.00;;;;;;5014299;28;20029;-79
2021/04/18 05:34:44;;;;;;;12.03;6.90;;;11.10;63.10;;;;;;5029801;28;20079;-80
2021/04/18 05:37:10;;;;;;;13.80;8.17;;;11.40;61.60;;;;;;5030590;28;20140;-80
2021/04/18 05:39:36;;;;;;;12.30;7.30;;;11.50;60.90;;;;;;5014203;28;20029;-79
2021/04/18 05:42:02;;;;;;;12.60;6.53;;;11.80;60.70;;;;;;5028885;28;20022;-80
2021/04/18 05:44:28;;;;;;;13.33;6.27;;;12.20;59.40;;;;;;5013883;28;20410;-80
2021/04/18 05:46:54;;;;;;;12.27;5.50;;;12.60;57.90;;;;;;5012486;28;20049;-80
2021/04/18 05:49:19;;;;;;;14.53;5.70;;;12.80;56.60;;;;;;5030363;28;20030;-80
2021/04/18 05:51:45;;;;;;;12.80;5.80;;;13.10;55.80;;;;;;5029572;28;20021;-80
2021/04/18 05:54:11;;;;;;;11.27;5.73;;;13.30;54.80;;;;;;5030393;28;20163;-80
2021/04/18 05:56:36;;;;;;;12.13;5.43;;;13.70;54.30;;;;;;5030335;28;20076;-80
2021/04/18 05:59:02;;;;;;;11.53;5.87;;;14.20;53.30;;;;;;5029086;28;20111;-80
2021/04/18 06:01:29;;;;;;;11.10;5.80;;;14.70;51.50;;;;;;5017042;28;20072;-80
2021/04/18 06:03:55;;;;;;;9.47;5.20;;;15.00;50.50;;;;;;5029492;28;20068;-79
2021/04/18 06:06:22;;;;;;;13.77;5.53;;;15.30;49.60;;;;;;4998371;28;20084;-79
2021/04/18 06:08:49;;;;;;;14.82;7.75;;;15.80;48.80;;;;;;5033542;28;20037;-79
2021/04/18 06:11:14;;;;;;;15.38;9.38;;;16.20;47.30;;;;;;5035097;28;20029;-78
2021/04/18 06:13:40;;;;;;;17.80;9.93;;;16.40;47.10;;;;;;5030006;28;20061;-77
2021/04/18 06:16:07;;;;;;;15.40;10.50;;;16.70;46.70;;;;;;5030924;28;20038;-78
2021/04/18 06:18:33;;;;;;;14.13;8.35;;;17.00;45.80;;;;;;5031682;28;20057;-78
2021/04/18 06:20:59;;;;;;;14.63;7.15;;;17.20;45.50;;;;;;5030765;28;20072;-78
2021/04/18 06:23:24;;;;;;;11.23;5.63;;;17.40;45.40;;;;;;5031206;28;20033;-79
2021/04/18 06:25:50;;;;;;;12.65;5.75;;;17.40;44.70;;;;;;5029875;28;20490;-77
2021/04/18 06:28:16;;;;;;;11.50;5.72;;;17.60;44.40;;;;;;5031662;28;20065;-78
2021/04/18 06:30:42;;;;;;;12.25;5.28;;;17.70;44.20;;;;;;5031590;28;20033;-78
2021/04/18 06:33:08;;;;;;;12.60;5.55;;;17.90;43.90;;;;;;5007538;28;20041;-79
2021/04/18 06:35:33;;;;;;;14.52;6.18;;;18.10;43.50;;;;;;5010347;28;20034;-79
2021/04/18 06:37:59;;;;;;;10.65;5.90;;;18.30;43.20;;;;;;5012335;28;20041;-79
2021/04/18 06:40:26;;;;;;;11.07;5.70;;;18.40;43.10;;;;;;5013540;28;20399;-79
2021/04/18 06:42:55;;;;;;;10.23;5.38;;;18.70;42.60;;;;;;5029322;28;20052;-79
2021/04/18 06:45:21;;;;;;;12.65;6.20;;;19.00;42.10;;;;;;5029150;28;20061;-79
2021/04/18 06:47:47;;;;;;;18.00;6.20;;;19.20;41.50;;;;;;5028183;28;20494;-81
2021/04/18 06:50:13;;;;;;;8.55;5.82;;;19.10;41.20;;;;;;5028737;28;20491;-78
2021/04/18 06:52:39;;;;;;;12.25;6.13;;;19.30;41.40;;;;;;5028828;28;20479;-79
2021/04/18 06:55:10;;;;;;;12.70;5.55;;;19.10;41.40;;;;;;5034068;28;20033;-80
2021/04/18 06:57:37;;;;;;;9.40;4.90;;;19.40;41.70;;;;;;5038804;28;20033;-80
2021/04/18 07:00:05;;;;;;;7.63;4.60;;;19.90;40.80;;;;;;5028435;28;20042;-80
2021/04/18 07:02:33;;;;;;;9.85;5.40;;;20.30;39.60;;;;;;5025872;28;20041;-82
2021/04/18 07:05:06;;;;;;;9.65;5.40;;;20.60;39.20;;;;;;5037403;28;20034;-80
2021/04/18 07:07:35;;;;;;;9.00;5.13;;;20.90;38.60;;;;;;5039216;28;20029;-80
2021/04/18 07:10:02;;;;;;;10.40;5.65;;;20.90;38.10;;;;;;5034906;28;20018;-80
2021/04/18 07:12:30;;;;;;;8.70;5.53;;;20.90;38.20;;;;;;5029292;28;20080;-80
2021/04/18 07:14:57;;;;;;;9.18;5.28;;;20.80;38.30;;;;;;5044623;28;20057;-81
2021/04/18 07:17:23;;;;;;;11.15;4.90;;;20.90;38.00;;;;;;5049133;28;20508;-80
2021/04/18 07:20:05;;;;;;;9.48;5.07;;;21.00;37.50;;;;;;5016536;28;20029;-80
2021/04/18 07:22:30;;;;;;;7.88;4.78;;;21.10;37.70;;;;;;5031064;28;20037;-80
2021/04/18 07:24:59;;;;;;;9.32;4.82;;;21.30;37.30;;;;;;5030787;28;20033;-81
2021/04/18 07:27:47;;;;;;;9.43;5.30;;;21.80;36.40;;;;;;5031438;28;20468;-79
2021/04/18 07:30:15;;;;;;;10.25;5.00;;;21.80;36.10;;;;;;5015956;28;20024;-80
2021/04/18 07:32:42;;;;;;;10.02;4.82;;;21.80;35.90;;;;;;5028600;28;20087;-80
2021/04/18 07:35:35;;;;;;;9.55;5.78;;;22.00;36.20;;;;;;5031800;28;20032;-81
2021/04/18 07:38:23;;;;;;;12.13;8.40;;;22.40;35.50;;;;;;5012090;28;20040;-80
2021/04/18 07:40:52;;;;;;;8.40;5.70;;;22.50;34.80;;;;;;5045941;28;20028;-80
2021/04/18 07:43:18;;;;;;;10.45;5.35;;;22.50;34.50;;;;;;5058021;28;20029;-80
2021/04/18 07:45:46;;;;;;;16.48;12.40;;;22.40;34.80;;;;;;5049189;28;20049;-82
2021/04/18 07:48:14;;;;;;;16.70;11.88;;;22.60;34.70;;;;;;5046607;28;20032;-80
2021/04/18 07:50:43;;;;;;;15.85;14.27;;;23.00;34.10;;;;;;5055067;28;20036;-80
2021/04/18 07:53:09;;;;;;;17.02;14.50;;;23.30;33.70;;;;;;5029229;28;20029;-82
2021/04/18 07:55:36;;;;;;;12.20;6.53;;;23.20;33.00;;;;;;5032014;28;20074;-80
2021/04/18 07:58:03;;;;;;;20.23;18.05;;;23.10;33.10;;;;;;5032171;28;20493;-81
2021/04/18 08:00:33;;;;;;;13.63;11.32;;;23.10;32.80;;;;;;5032947;28;20017;-80
2021/04/18 08:02:59;;;;;;;8.93;5.35;;;22.90;33.50;;;;;;5032543;28;20056;-82
2021/04/18 08:05:29;;;;;;;8.02;4.47;;;22.70;34.10;;;;;;5034941;28;20056;-79
2021/04/18 08:08:04;;;;;;;7.78;4.95;;;22.60;34.20;;;;;;5036299;28;20029;-80
2021/04/18 08:10:33;;;;;;;9.38;4.85;;;22.50;34.70;;;;;;5053996;28;20486;-79
2021/04/18 08:13:06;;;;;;;10.48;5.63;;;22.10;35.30;;;;;;5035284;28;20474;-81
2021/04/18 08:15:33;;;;;;;8.10;4.50;;;22.10;35.70;;;;;;5034888;28;20060;-82
2021/04/18 08:18:17;;;;;;;9.68;4.45;;;22.50;35.40;;;;;;5035486;28;20029;-81
2021/04/18 08:20:45;;;;;;;11.38;4.60;;;22.90;33.80;;;;;;5035361;28;20036;-81
2021/04/18 08:23:17;;;;;;;8.82;4.55;;;23.20;33.90;;;;;;5034392;28;20112;-81
2021/04/18 08:26:04;;;;;;;9.57;4.72;;;23.50;32.90;;;;;;5019515;28;20037;-81
2021/04/18 08:28:30;;;;;;;13.55;8.88;;;23.20;33.10;;;;;;5034386;28;20045;-81
2021/04/18 08:30:59;;;;;;;13.73;9.15;;;23.30;33.60;;;;;;5002841;28;20143;-82
2021/04/18 08:33:40;;;;;;;11.70;6.25;;;23.40;33.40;;;;;;5023818;28;20040;-81
2021/04/18 08:36:20;;;;;;;7.20;4.75;;;23.70;33.00;;;;;;5033708;28;20033;-80
2021/04/18 08:38:49;;;;;;;15.13;13.13;;;23.90;32.50;;;;;;5033983;28;20033;-81
2021/04/18 08:41:16;;;;;;;13.35;11.50;;;24.10;32.50;;;;;;5016508;28;20033;-79
2021/04/18 08:43:46;;;;;;;16.45;14.80;;;24.30;31.90;;;;;;5050273;28;20207;-80
2021/04/18 08:46:12;;;;;;;9.98;5.85;;;24.30;32.30;;;;;;5050155;28;20083;-80
2021/04/18 08:48:37;;;;;;;6.85;4.93;;;24.40;31.80;;;;;;5044086;28;20037;-82
2021/04/18 08:51:08;;;;;;;12.43;10.55;;;24.50;31.60;;;;;;5054527;28;20085;-80
2021/04/18 08:53:57;;;;;;;11.93;5.85;;;24.60;31.60;;;;;;5032739;28;20122;-79
2021/04/18 08:56:42;;;;;;;8.48;3.72;;;25.00;30.60;;;;;;5052511;28;20116;-80
2021/04/18 08:59:12;;;;;;;8.27;4.10;;;25.20;30.10;;;;;;5033607;28;20036;-81
2021/04/18 09:01:38;;;;;;;8.18;3.95;;;25.10;29.90;;;;;;5034933;28;20475;-81
2021/04/18 09:04:09;;;;;;;7.45;3.70;;;24.90;30.30;;;;;;5049980;28;20040;-81
2021/04/18 09:06:36;;;;;;;6.63;3.55;;;25.00;30.20;;;;;;5036580;28;20029;-82
2021/04/18 09:09:07;;;;;;;6.30;3.42;;;25.20;29.80;;;;;;5037995;28;20466;-81
2021/04/18 09:11:37;;;;;;;6.40;4.15;;;25.50;29.50;;;;;;5036079;28;20043;-82
2021/04/18 09:14:03;;;;;;;7.45;4.45;;;25.70;29.20;;;;;;5026232;28;20040;-80
2021/04/18 09:16:32;;;;;;;4.97;2.80;;;26.00;28.90;;;;;;5023350;28;20093;-81
2021/04/18 09:19:20;;;;;;;9.45;2.80;;;26.10;28.20;;;;;;5033466;28;20028;-81
2021/04/18 09:22:06;;;;;;;5.47;2.95;;;25.80;28.00;;;;;;5047993;28;20103;-81
2021/04/18 09:24:42;;;;;;;5.65;3.15;;;25.30;28.40;;;;;;5038370;28;20029;-81
2021/04/18 09:27:18;;;;;;;5.78;3.20;;;24.60;28.60;;;;;;5033922;28;20032;-81
2021/04/18 09:29:50;;;;;;;6.15;3.45;;;23.90;29.60;;;;;;5036124;28;20021;-82
2021/04/18 09:32:21;;;;;;;4.78;3.28;;;23.50;29.90;;;;;;5037684;28;20123;-83
2021/04/18 09:34:48;;;;;;;6.78;3.33;;;23.20;30.40;;;;;;5035649;28;20025;-82
2021/04/18 09:37:16;;;;;;;4.45;2.90;;;23.10;30.80;;;;;;5034082;28;20060;-80
2021/04/18 09:39:43;;;;;;;5.57;3.05;;;23.00;31.10;;;;;;5032622;28;20112;-80
2021/04/18 09:42:10;;;;;;;7.72;2.92;;;23.10;31.50;;;;;;5033150;28;20095;-80
2021/04/18 09:44:42;;;;;;;5.20;3.03;;;23.10;30.90;;;;;;5017949;28;20024;-81
2021/04/18 09:47:17;;;;;;;6.68;2.55;;;23.50;30.80;;;;;;5032958;28;20060;-81
2021/04/18 09:49:47;;;;;;;5.38;2.75;;;24.00;30.80;;;;;;5033408;28;20021;-82
2021/04/18 09:52:42;;;;;;;4.10;2.65;;;24.50;29.90;;;;;;5033013;28;20101;-82
2021/04/18 09:55:20;;;;;;;6.50;2.85;;;24.80;29.90;;;;;;5034201;28;20063;-82
2021/04/18 09:57:57;;;;;;;6.13;2.95;;;25.20;29.50;;;;;;5051859;28;20036;-82
2021/04/18 10:00:25;;;;;;;5.32;3.00;;;25.50;28.80;;;;;;5033327;28;20029;-83
2021/04/18 10:03:14;;;;;;;8.13;3.40;;;25.30;29.00;;;;;;5033182;28;20037;-82
2021/04/18 10:05:46;;;;;;;13.18;4.63;;;25.00;29.10;;;;;;5017519;28;20040;-83
2021/04/18 10:08:16;;;;;;;13.07;4.72;;;25.00;30.00;;;;;;5033575;28;20025;-83
2021/04/18 10:10:42;;;;;;;15.20;6.20;;;25.10;30.00;;;;;;5033401;28;20032;-84
2021/04/18 10:13:08;;;;;;;15.73;7.07;;;24.70;30.10;;;;;;5034137;28;20518;-81
2021/04/18 10:15:33;;;;;;;13.75;5.05;;;24.10;30.60;;;;;;5033369;28;20044;-80
2021/04/18 10:18:11;;;;;;;11.50;4.60;;;23.50;31.00;;;;;;5031784;28;20479;-81
2021/04/18 10:20:40;;;;;;;10.23;4.53;;;23.10;31.90;;;;;;5029378;28;20060;-82
2021/04/18 10:23:08;;;;;;;14.90;5.20;;;22.70;32.10;;;;;;5026168;28;20473;-83
2021/04/18 10:25:38;;;;;;;14.13;7.53;;;22.10;32.50;;;;;;5019156;28;20486;-82
2021/04/18 10:28:05;;;;;;;5.80;4.07;;;21.70;33.70;;;;;;5032575;28;20039;-81
2021/04/18 10:30:31;;;;;;;6.22;4.03;;;21.30;32.70;;;;;;5034219;28;20406;-81
2021/04/18 10:32:58;;;;;;;5.63;4.28;;;21.00;33.10;;;;;;5031511;28;20035;-81
2021/04/18 10:35:25;;;;;;;9.15;4.95;;;20.80;33.50;;;;;;5034663;28;20060;-80
2021/04/18 10:37:51;;;;;;;8.07;4.40;;;20.60;34.20;;;;;;5034736;28;20025;-81
2021/04/18 10:40:18;;;;;;;6.25;3.92;;;20.50;34.20;;;;;;5035441;28;20048;-82
2021/04/18 10:42:44;;;;;;;9.85;4.70;;;20.40;34.30;;;;;;5034090;28;20036;-81
2021/04/18 10:45:12;;;;;;;11.13;4.35;;;20.30;34.70;;;;;;5034546;28;20029;-82
2021/04/18 10:47:38;;;;;;;6.20;3.45;;;20.30;34.60;;;;;;5021830;28;20056;-82
2021/04/18 10:50:05;;;;;;;9.63;4.65;;;20.20;34.60;;;;;;5052734;28;20583;-81
2021/04/18 10:52:32;;;;;;;13.48;9.45;;;20.10;34.70;;;;;;5047478;28;20045;-81
2021/04/18 10:54:58;;;;;;;15.70;11.70;;;20.10;35.00;;;;;;5048060;28;20091;-81
2021/04/18 10:57:24;;;;;;;14.95;11.85;;;20.00;35.00;;;;;;5017724;28;20029;-79
2021/04/18 10:59:49;;;;;;;10.40;7.10;;;20.20;35.10;;;;;;5017508;28;20153;-81
2021/04/18 11:02:16;;;;;;;7.38;3.97;;;20.40;34.80;;;;;;5035031;28;20025;-81
2021/04/18 11:04:42;;;;;;;6.88;4.32;;;20.60;34.90;;;;;;5034001;28;20029;-82
2021/04/18 11:07:09;;;;;;;7.47;4.25;;;20.90;34.50;;;;;;5001038;28;20032;-80
2021/04/18 11:09:38;;;;;;;8.98;3.70;;;21.10;34.30;;;;;;5032451;28;20029;-84
2021/04/18 11:12:22;;;;;;;5.63;3.15;;;21.40;34.30;;;;;;5016495;28;20101;-82
2021/04/18 11:14:48;;;;;;;6.13;3.00;;;21.70;33.00;;;;;;5042292;28;20051;-81
2021/04/18 11:17:22;;;;;;;5.68;2.88;;;21.60;33.20;;;;;;5055985;28;20536;-82
2021/04/18 11:19:48;;;;;;;9.45;4.80;;;21.70;33.00;;;;;;5036894;28;20040;-84
2021/04/18 11:22:13;;;;;;;7.97;3.92;;;21.50;33.10;;;;;;5025035;28;20036;-82
2021/04/18 11:24:39;;;;;;;4.97;3.58;;;21.40;32.70;;;;;;5023103;28;20386;-81
2021/04/18 11:27:05;;;;;;;8.10;3.60;;;21.30;33.00;;;;;;5025703;28;20070;-81
2021/04/18 11:29:40;;;;;;;4.97;3.22;;;21.50;33.20;;;;;;5059596;28;20033;-82
2021/04/18 11:32:06;;;;;;;4.93;3.10;;;22.10;32.60;;;;;;5025374;28;20029;-83
2021/04/18 11:34:32;;;;;;;4.15;2.58;;;22.50;32.40;;;;;;5033224;28;20140;-81
2021/04/18 11:36:57;;;;;;;7.25;3.20;;;22.60;31.60;;;;;;5018854;28;20097;-82
2021/04/18 11:39:23;;;;;;;7.90;4.03;;;22.40;32.20;;;;;;5032879;28;20020;-82
2021/04/18 11:41:49;;;;;;;7.63;3.65;;;22.10;31.80;;;;;;5027110;28;20276;-81
2021/04/18 11:44:15;;;;;;;4.97;2.88;;;21.90;32.30;;;;;;5019862;28;20025;-81
2021/04/18 11:46:42;;;;;;;4.55;3.13;;;21.70;32.70;;;;;;5026290;28;20029;-80
2021/04/18 11:49:09;;;;;;;5.80;2.80;;;21.60;32.90;;;;;;5030744;28;20075;-83
2021/04/18 11:51:38;;;;;;;5.00;2.63;;;21.70;32.80;;;;;;5043688;28;20478;-82
2021/04/18 11:54:08;;;;;;;6.25;3.22;;;21.90;32.80;;;;;;5049744;28;20031;-82
2021/04/18 11:56:35;;;;;;;6.93;3.35;;;22.10;32.40;;;;;;5070290;28;20051;-83
2021/04/18 11:59:01;;;;;;;8.30;4.53;;;22.20;32.90;;;;;;5058720;28;20119;-82
2021/04/18 12:01:30;;;;;;;6.68;4.18;;;22.50;32.90;;;;;;5050374;28;20063;-84
2021/04/18 12:03:56;;;;;;;6.00;3.28;;;22.90;32.10;;;;;;5039867;28;20055;-82
2021/04/18 12:06:21;;;;;;;3.75;2.75;;;23.30;31.00;;;;;;5022212;28;20452;-82
2021/04/18 12:08:47;;;;;;;5.97;3.08;;;23.30;31.20;;;;;;5019735;28;20033;-83
2021/04/18 12:11:13;;;;;;;5.05;3.20;;;23.30;31.00;;;;;;5036735;28;20029;-82
2021/04/18 12:13:38;;;;;;;6.18;3.10;;;23.40;31.40;;;;;;5026942;28;20056;-84
2021/04/18 12:16:04;;;;;;;6.40;2.70;;;23.50;31.30;;;;;;5038813;28;20084;-83
2021/04/18 12:18:30;;;;;;;4.25;2.60;;;23.20;30.70;;;;;;5022655;28;20092;-84
2021/04/18 12:20:56;;;;;;;4.55;2.70;;;23.10;31.50;;;;;;5055427;28;20052;-81
2021/04/18 12:23:21;;;;;;;4.18;2.80;;;23.00;31.60;;;;;;5019001;28;20057;-83
2021/04/18 12:25:47;;;;;;;4.20;2.50;;;22.90;31.80;;;;;;5070083;28;20125;-83
2021/04/18 12:28:13;;;;;;;5.78;2.88;;;23.00;31.80;;;;;;5039142;28;20106;-82
2021/04/18 12:30:40;;;;;;;4.05;2.83;;;23.00;31.30;;;;;;5038121;28;20048;-84
2021/04/18 12:33:06;;;;;;;4.95;3.20;;;23.10;31.20;;;;;;5037200;28;20116;-83
2021/04/18 12:35:32;;;;;;;6.60;3.20;;;23.00;29.80;;;;;;5038498;28;20067;-82
2021/04/18 12:37:58;;;;;;;4.78;3.13;;;22.50;30.80;;;;;;5037535;28;20166;-84
2021/04/18 12:40:24;;;;;;;6.80;2.85;;;22.60;31.80;;;;;;5022270;28;20029;-83
2021/04/18 12:42:50;;;;;;;3.05;2.38;;;22.60;31.60;;;;;;5038558;28;20492;-82
2021/04/18 12:45:16;;;;;;;9.32;3.05;;;22.70;31.90;;;;;;5020150;28;20037;-81
2021/04/18 12:47:42;;;;;;;6.97;3.10;;;22.80;31.70;;;;;;5020786;28;20039;-84
2021/04/18 12:50:09;;;;;;;6.55;4.95;;;22.60;31.80;;;;;;5035878;28;20033;-83